Parham, Canada
Current Conditions -  °F | °C
As of 5:00 PM on Sunday 25 Jan 2015 (Local Time) from CYGK Reporting Station
Few Clouds Few Clouds  
Wind Chill: 14°   Ceiling: Unl
Heat Index: 14°   Visibility: 15mi
Dew Point:   Wind: 3mph
Humidity: 62%   Direction: 130°SE
Pressure: 30"   Gusts: NA
Location:  44.65°N, 76.72°W
Report Text: CYGK 252200Z 13003KT 15SM FEW250 M10/M16 A3000 RMK CI2 SLP165
Loading
Personal Weather Stations






























Interactive Weather Map New forecast layout! Learn more

10-Day Weather Forecast

Advertisements
Track Severe Weather on mobile